createdAt,value
2023-12-17T00:00:13.589Z,12.27
2023-12-17T00:02:40.830Z,9.90
2023-12-17T00:05:08.787Z,8.17
2023-12-17T00:07:35.700Z,10.70
2023-12-17T00:10:02.591Z,11.13
2023-12-17T00:12:29.515Z,10.13
2023-12-17T00:14:59.043Z,10.77
2023-12-17T00:17:25.988Z,11.37
2023-12-17T00:19:52.951Z,11.67
2023-12-17T00:22:20.351Z,12.80
2023-12-17T00:24:47.226Z,12.77
2023-12-17T00:27:14.160Z,12.57
2023-12-17T00:29:41.190Z,12.57
2023-12-17T00:32:10.680Z,14.67
2023-12-17T00:34:37.668Z,10.87
2023-12-17T00:37:04.890Z,11.03
2023-12-17T00:39:31.745Z,10.20
2023-12-17T00:41:58.665Z,12.97
2023-12-17T00:44:25.578Z,12.60
2023-12-17T00:46:52.469Z,12.00
2023-12-17T00:49:22.150Z,11.10
2023-12-17T00:51:49.115Z,9.53
2023-12-17T00:54:16.141Z,10.83
2023-12-17T00:56:43.045Z,11.47
2023-12-17T00:59:09.909Z,9.83
2023-12-17T01:01:36.855Z,9.30
2023-12-17T01:04:04.111Z,9.60
2023-12-17T01:06:33.628Z,8.63
2023-12-17T01:09:00.532Z,9.83
2023-12-17T01:11:27.430Z,10.23
2023-12-17T01:13:54.362Z,10.27
2023-12-17T01:16:21.275Z,8.33
2023-12-17T01:18:48.912Z,9.47
2023-12-17T01:21:16.011Z,9.20
2023-12-17T01:23:45.543Z,9.23
2023-12-17T01:26:18.654Z,7.33
2023-12-17T01:28:45.571Z,8.67
2023-12-17T01:31:12.490Z,9.83
2023-12-17T01:33:39.607Z,8.63
2023-12-17T01:36:07.634Z,8.07
2023-12-17T01:38:34.829Z,8.43
2023-12-17T01:41:04.663Z,8.47
2023-12-17T01:43:31.988Z,9.90
2023-12-17T01:45:58.884Z,9.30
2023-12-17T01:48:27.179Z,11.53
2023-12-17T01:50:55.084Z,9.50
2023-12-17T01:53:23.005Z,8.10
2023-12-17T01:55:51.001Z,7.97
2023-12-17T01:58:21.560Z,8.23
2023-12-17T02:00:49.082Z,8.10
2023-12-17T02:03:16.228Z,8.67
2023-12-17T02:05:45.339Z,8.53
2023-12-17T02:08:12.406Z,7.77
2023-12-17T02:10:39.494Z,7.67
2023-12-17T02:13:06.373Z,8.60
2023-12-17T02:15:35.884Z,7.80
2023-12-17T02:18:02.834Z,8.70
2023-12-17T02:20:29.775Z,8.20
2023-12-17T02:22:58.815Z,6.67
2023-12-17T02:25:28.654Z,10.27
2023-12-17T02:27:57.013Z,10.17
2023-12-17T02:30:24.076Z,7.00
2023-12-17T02:32:51.465Z,9.60
2023-12-17T02:35:18.822Z,7.00
2023-12-17T02:37:45.726Z,7.17
2023-12-17T02:40:12.900Z,7.93
2023-12-17T02:42:42.354Z,7.20
2023-12-17T02:45:10.674Z,9.97
2023-12-17T02:47:38.166Z,7.73
2023-12-17T02:50:06.198Z,9.53
2023-12-17T02:52:33.096Z,7.77
2023-12-17T02:54:59.972Z,7.67
2023-12-17T02:57:26.964Z,6.37
2023-12-17T02:59:56.806Z,5.70
2023-12-17T03:02:23.719Z,6.83
2023-12-17T03:04:50.723Z,7.27
2023-12-17T03:07:18.736Z,6.90
2023-12-17T03:09:45.635Z,6.83
2023-12-17T03:12:12.553Z,5.63
2023-12-17T03:14:39.423Z,5.27
2023-12-17T03:17:08.919Z,5.07
2023-12-17T03:19:35.807Z,6.57
2023-12-17T03:22:02.827Z,7.13
2023-12-17T03:24:29.680Z,8.10
2023-12-17T03:26:56.604Z,8.47
2023-12-17T03:29:23.524Z,6.30
2023-12-17T03:31:50.500Z,6.20
2023-12-17T03:34:20.137Z,6.03
2023-12-17T03:36:47.087Z,7.23
2023-12-17T03:39:14.025Z,6.90
2023-12-17T03:41:40.933Z,5.20
2023-12-17T03:44:07.796Z,6.37
2023-12-17T03:46:34.710Z,6.80
2023-12-17T03:49:01.675Z,5.70
2023-12-17T03:51:33.992Z,5.83
2023-12-17T03:54:00.910Z,6.43
2023-12-17T03:56:28.170Z,5.37
2023-12-17T03:58:55.077Z,5.43
2023-12-17T04:01:22.003Z,6.40
2023-12-17T04:03:48.989Z,5.33
2023-12-17T04:06:15.963Z,5.83
2023-12-17T04:08:45.467Z,7.63
2023-12-17T04:11:12.377Z,8.03
2023-12-17T04:13:39.294Z,7.13
2023-12-17T04:16:06.783Z,5.77
2023-12-17T04:18:33.778Z,6.57
2023-12-17T04:21:00.811Z,7.87
2023-12-17T04:23:27.728Z,7.47
2023-12-17T04:25:57.254Z,6.00
2023-12-17T04:28:24.169Z,6.40
2023-12-17T04:30:51.105Z,7.00
2023-12-17T04:33:18.169Z,8.03
2023-12-17T04:35:45.188Z,6.83
2023-12-17T04:38:12.080Z,7.43
2023-12-17T04:40:38.971Z,7.30
2023-12-17T04:43:08.469Z,7.23
2023-12-17T04:45:35.360Z,5.03
2023-12-17T04:48:02.327Z,6.37
2023-12-17T04:50:29.335Z,6.03
2023-12-17T04:52:56.184Z,4.33
2023-12-17T04:55:23.044Z,4.63
2023-12-17T04:57:49.911Z,5.60
2023-12-17T05:00:19.569Z,7.70
2023-12-17T05:02:46.530Z,5.87
2023-12-17T05:05:13.602Z,6.60
2023-12-17T05:07:40.761Z,6.27
2023-12-17T05:10:09.546Z,6.63
2023-12-17T05:12:36.412Z,5.23
2023-12-17T05:15:03.714Z,5.57
2023-12-17T05:17:33.294Z,5.60
2023-12-17T05:20:00.260Z,9.50
2023-12-17T05:22:27.242Z,8.33
2023-12-17T05:24:54.360Z,6.57
2023-12-17T05:27:21.383Z,4.93
2023-12-17T05:29:48.378Z,4.57
2023-12-17T05:32:15.247Z,5.37
2023-12-17T05:34:44.781Z,5.50
2023-12-17T05:37:11.711Z,4.83
2023-12-17T05:39:38.665Z,5.67
2023-12-17T05:42:05.948Z,5.87
2023-12-17T05:44:32.888Z,5.60
2023-12-17T05:46:59.785Z,5.00
2023-12-17T05:49:26.952Z,5.33
2023-12-17T05:51:56.541Z,5.37
2023-12-17T05:54:23.479Z,5.07
2023-12-17T05:56:50.420Z,4.90
2023-12-17T05:59:17.401Z,5.33
2023-12-17T06:01:44.302Z,5.37
2023-12-17T06:04:11.220Z,6.57
2023-12-17T06:06:38.197Z,5.83
2023-12-17T06:09:07.790Z,7.40
2023-12-17T06:11:34.731Z,4.70
2023-12-17T06:14:01.691Z,5.13
2023-12-17T06:16:28.568Z,6.03
2023-12-17T06:18:55.653Z,5.40
2023-12-17T06:21:23.344Z,4.17
2023-12-17T06:23:50.434Z,4.60
2023-12-17T06:26:19.965Z,5.87
2023-12-17T06:28:47.208Z,4.37
2023-12-17T06:31:14.417Z,4.93
2023-12-17T06:33:41.498Z,6.07
2023-12-17T06:36:09.463Z,4.10
2023-12-17T06:38:36.601Z,5.07
2023-12-17T06:41:03.937Z,6.77
2023-12-17T06:43:33.449Z,5.87
2023-12-17T06:46:00.523Z,5.37
2023-12-17T06:48:27.462Z,9.30
2023-12-17T06:50:54.413Z,8.70
2023-12-17T06:53:21.354Z,9.00
2023-12-17T06:55:48.291Z,7.60
2023-12-17T06:58:15.184Z,8.40
2023-12-17T07:00:44.768Z,6.37
2023-12-17T07:03:11.783Z,5.90
2023-12-17T07:05:38.767Z,5.73
2023-12-17T07:08:05.917Z,6.73
2023-12-17T07:10:32.796Z,6.20
2023-12-17T07:12:59.674Z,8.63
2023-12-17T07:15:26.747Z,7.60
2023-12-17T07:17:56.406Z,7.20
2023-12-17T07:20:23.363Z,5.77
2023-12-17T07:22:50.278Z,7.30
2023-12-17T07:25:17.865Z,8.73
2023-12-17T07:27:44.853Z,9.10
2023-12-17T07:30:13.093Z,7.33
2023-12-17T07:32:40.085Z,9.70
2023-12-17T07:35:09.945Z,6.60
2023-12-17T07:37:36.988Z,5.53
2023-12-17T07:40:04.675Z,7.13
2023-12-17T07:42:31.644Z,5.57
2023-12-17T07:44:58.616Z,7.63
2023-12-17T07:47:25.599Z,9.63
2023-12-17T07:49:52.560Z,11.30
2023-12-17T07:52:22.060Z,9.70
2023-12-17T07:54:48.950Z,7.33
2023-12-17T07:57:15.880Z,8.33
2023-12-17T07:59:42.791Z,8.53
2023-12-17T08:02:09.669Z,8.47
2023-12-17T08:04:36.749Z,8.23
2023-12-17T08:07:04.132Z,8.57
2023-12-17T08:09:33.713Z,6.87
2023-12-17T08:12:00.633Z,6.13
2023-12-17T08:14:27.572Z,7.00
2023-12-17T08:16:54.451Z,7.50
2023-12-17T08:19:21.416Z,8.63
2023-12-17T08:21:48.420Z,7.53
2023-12-17T08:24:15.430Z,8.53
2023-12-17T08:26:44.973Z,10.50
2023-12-17T08:29:11.842Z,10.80
2023-12-17T08:31:43.376Z,12.60
2023-12-17T08:34:10.321Z,12.97
2023-12-17T08:36:37.256Z,11.37
2023-12-17T08:39:04.542Z,11.10
2023-12-17T08:41:31.484Z,12.77
2023-12-17T08:44:01.122Z,12.57
2023-12-17T08:46:27.996Z,11.33
2023-12-17T08:48:54.933Z,11.47
2023-12-17T08:51:21.958Z,9.30
2023-12-17T08:53:48.954Z,11.13
2023-12-17T08:56:15.906Z,10.87
2023-12-17T08:58:43.089Z,8.90
2023-12-17T09:01:12.602Z,8.77
2023-12-17T09:03:39.635Z,8.80
2023-12-17T09:06:07.864Z,9.27
2023-12-17T09:08:34.746Z,8.67
2023-12-17T09:11:01.586Z,9.77
2023-12-17T09:13:28.786Z,8.10
2023-12-17T09:15:55.687Z,9.03
2023-12-17T09:18:25.309Z,11.13
2023-12-17T09:20:52.253Z,9.67
2023-12-17T09:23:19.189Z,10.07
2023-12-17T09:25:46.086Z,8.33
2023-12-17T09:28:13.081Z,9.90
2023-12-17T09:30:40.057Z,10.23
2023-12-17T09:33:07.062Z,7.90
2023-12-17T09:35:36.620Z,9.23
2023-12-17T09:38:03.550Z,8.17
2023-12-17T09:40:30.497Z,8.53
2023-12-17T09:42:58.074Z,12.07
2023-12-17T09:45:25.590Z,13.80
2023-12-17T09:47:52.673Z,12.23
2023-12-17T09:50:19.703Z,8.93
2023-12-17T09:52:49.262Z,11.77
2023-12-17T09:55:16.146Z,11.27
2023-12-17T09:57:43.898Z,30.47
2023-12-17T10:00:12.140Z,30.23
2023-12-17T10:02:40.210Z,16.20
2023-12-17T10:05:08.653Z,11.20
2023-12-17T10:07:36.217Z,9.67
2023-12-17T10:10:06.861Z,9.40
2023-12-17T10:12:33.932Z,10.13
2023-12-17T10:15:00.937Z,8.57
2023-12-17T10:17:27.972Z,8.87
2023-12-17T10:19:55.008Z,11.87
2023-12-17T10:22:22.101Z,7.97
2023-12-17T10:24:50.261Z,10.17
2023-12-17T10:27:21.117Z,10.87
2023-12-17T10:29:50.293Z,7.93
2023-12-17T10:32:21.192Z,9.67
2023-12-17T10:34:49.808Z,11.27
2023-12-17T10:37:19.377Z,9.43
2023-12-17T10:39:48.178Z,8.87
2023-12-17T10:42:15.426Z,8.27
2023-12-17T10:44:45.347Z,8.30
2023-12-17T10:47:12.919Z,7.93
2023-12-17T10:49:40.443Z,9.37
2023-12-17T10:52:08.023Z,10.57
2023-12-17T10:54:35.071Z,7.97
2023-12-17T10:57:03.596Z,9.00
2023-12-17T10:59:38.210Z,7.77
2023-12-17T11:02:12.623Z,7.53
2023-12-17T11:05:19.504Z,8.10
2023-12-17T11:07:46.502Z,11.00
2023-12-17T11:10:14.064Z,11.00
2023-12-17T11:12:41.312Z,8.93
2023-12-17T11:17:47.432Z,15.27
2023-12-17T11:20:14.624Z,14.83
2023-12-17T11:22:41.529Z,9.40
2023-12-17T11:25:10.083Z,10.47
2023-12-17T11:27:37.179Z,7.80
2023-12-17T11:30:26.603Z,11.27
2023-12-17T11:32:58.119Z,9.53
2023-12-17T11:35:26.183Z,12.10
2023-12-17T11:37:53.303Z,8.43
2023-12-17T11:40:21.137Z,52.43
2023-12-17T11:42:57.457Z,68.97
2023-12-17T11:45:37.574Z,35.00
2023-12-17T11:48:09.466Z,16.13
2023-12-17T11:50:41.325Z,17.53
2023-12-17T11:53:08.661Z,10.37
2023-12-17T11:55:45.277Z,10.57
2023-12-17T11:58:12.607Z,10.13
2023-12-17T12:00:40.427Z,7.03
2023-12-17T12:08:27.656Z,10.40
2023-12-17T12:10:54.625Z,7.93
2023-12-17T12:13:22.138Z,7.23
2023-12-17T12:15:49.394Z,8.13
2023-12-17T12:18:22.359Z,7.20
2023-12-17T12:20:50.088Z,8.03
2023-12-17T12:23:17.416Z,6.93
2023-12-17T12:25:47.011Z,6.37
2023-12-17T12:28:19.017Z,8.00
2023-12-17T12:30:47.902Z,8.87
2023-12-17T12:33:16.996Z,6.80
2023-12-17T12:35:45.048Z,6.20
2023-12-17T12:38:19.435Z,8.30
2023-12-17T12:40:49.282Z,5.97
2023-12-17T12:43:16.367Z,6.50
2023-12-17T12:45:43.343Z,9.97
2023-12-17T12:48:17.267Z,7.77
2023-12-17T12:50:44.312Z,6.73
2023-12-17T12:53:16.195Z,6.10
2023-12-17T12:55:50.096Z,7.10
2023-12-17T12:58:18.158Z,6.97
2023-12-17T13:00:46.630Z,6.03
2023-12-17T13:03:14.127Z,4.53
2023-12-17T13:05:42.075Z,7.63
2023-12-17T13:08:09.106Z,7.20
2023-12-17T13:10:36.284Z,8.40
2023-12-17T13:13:05.824Z,5.70
2023-12-17T13:15:35.268Z,6.90
2023-12-17T13:18:02.700Z,6.40
2023-12-17T13:20:29.928Z,7.83
2023-12-17T13:22:57.179Z,6.70
2023-12-17T13:25:24.110Z,6.83
2023-12-17T13:27:50.976Z,7.13
2023-12-17T13:30:20.684Z,9.30
2023-12-17T13:32:48.075Z,7.80
2023-12-17T13:35:15.129Z,8.23
2023-12-17T13:37:43.792Z,9.10
2023-12-17T13:40:13.391Z,9.17
2023-12-17T13:42:40.747Z,7.70
2023-12-17T13:45:08.867Z,7.77
2023-12-17T13:47:38.668Z,7.77
2023-12-17T13:50:06.299Z,7.30
2023-12-17T13:52:33.383Z,7.53
2023-12-17T13:55:00.475Z,8.03
2023-12-17T13:57:27.449Z,7.53
2023-12-17T13:59:54.528Z,7.53
2023-12-17T14:02:21.627Z,8.10
2023-12-17T14:04:51.152Z,7.30
2023-12-17T14:07:18.542Z,5.63
2023-12-17T14:09:45.443Z,5.97
2023-12-17T14:12:12.401Z,15.17
2023-12-17T14:14:39.376Z,25.70
2023-12-17T14:17:06.592Z,15.57
2023-12-17T14:19:33.497Z,11.10
2023-12-17T14:22:03.635Z,11.40
2023-12-17T14:24:30.586Z,8.77
2023-12-17T14:26:57.850Z,7.70
2023-12-17T14:29:27.228Z,8.67
2023-12-17T14:31:54.143Z,8.63
2023-12-17T14:34:21.147Z,8.77
2023-12-17T14:36:48.181Z,7.00
2023-12-17T14:39:18.463Z,8.33
2023-12-17T14:41:45.426Z,7.27
2023-12-17T14:44:12.424Z,6.67
2023-12-17T14:46:39.291Z,5.50
2023-12-17T14:49:06.352Z,9.23
2023-12-17T14:51:33.445Z,5.73
2023-12-17T14:54:00.411Z,5.40
2023-12-17T14:56:29.989Z,4.70
2023-12-17T14:58:57.687Z,8.47
2023-12-17T15:01:31.718Z,6.73
2023-12-17T15:04:02.757Z,6.57
2023-12-17T15:06:29.924Z,5.73
2023-12-17T15:08:57.124Z,5.37
2023-12-17T15:11:24.152Z,5.50
2023-12-17T15:13:53.624Z,5.93
2023-12-17T15:16:20.501Z,6.47
2023-12-17T15:18:47.483Z,4.23
2023-12-17T15:21:15.517Z,5.80
2023-12-17T15:23:42.495Z,7.00
2023-12-17T15:26:09.385Z,8.57
2023-12-17T15:28:37.102Z,8.37
2023-12-17T15:31:12.369Z,6.70
2023-12-17T15:33:39.452Z,6.47
2023-12-17T15:36:07.212Z,8.40
2023-12-17T15:38:34.235Z,14.37
2023-12-17T15:41:01.126Z,15.10
2023-12-17T15:43:27.971Z,17.10
2023-12-17T15:45:54.838Z,18.13
2023-12-17T15:48:24.453Z,17.47
2023-12-17T15:50:51.475Z,16.00
2023-12-17T15:53:18.351Z,15.23
2023-12-17T15:55:45.602Z,14.07
2023-12-17T15:58:12.517Z,14.53
2023-12-17T16:00:39.489Z,13.53
2023-12-17T16:03:06.497Z,13.20
2023-12-17T16:05:36.016Z,12.60
2023-12-17T16:08:02.924Z,12.63
2023-12-17T16:10:29.781Z,13.27
2023-12-17T16:12:56.660Z,10.40
2023-12-17T16:15:23.679Z,9.10
2023-12-17T16:17:50.635Z,8.23
2023-12-17T16:20:17.834Z,8.27
2023-12-17T16:22:47.657Z,7.50
2023-12-17T16:25:14.552Z,8.00
2023-12-17T16:27:41.443Z,7.57
2023-12-17T16:30:09.183Z,7.87
2023-12-17T16:32:36.217Z,10.97
2023-12-17T16:35:03.383Z,9.13
2023-12-17T16:37:30.354Z,7.87
2023-12-17T16:39:59.831Z,7.33
2023-12-17T16:42:26.785Z,5.47
2023-12-17T16:44:53.692Z,5.93
2023-12-17T16:47:20.621Z,6.57
2023-12-17T16:49:47.705Z,7.80
2023-12-17T16:52:14.821Z,8.00
2023-12-17T16:54:41.730Z,8.33
2023-12-17T16:57:11.274Z,6.67
2023-12-17T16:59:38.207Z,10.90
2023-12-17T17:02:05.337Z,6.60
2023-12-17T17:04:32.345Z,10.47
2023-12-17T17:06:59.305Z,9.33
2023-12-17T17:09:26.240Z,13.00
2023-12-17T17:11:53.217Z,9.80
2023-12-17T17:14:22.670Z,12.33
2023-12-17T17:16:49.733Z,12.80
2023-12-17T17:19:16.762Z,12.73
2023-12-17T17:21:43.909Z,16.03
2023-12-17T17:24:10.879Z,18.10
2023-12-17T17:26:38.432Z,14.50
2023-12-17T17:29:05.367Z,14.10
2023-12-17T17:31:34.875Z,13.13
2023-12-17T17:34:01.956Z,14.67
2023-12-17T17:36:29.156Z,14.00
2023-12-17T17:38:56.219Z,13.80
2023-12-17T17:41:23.328Z,13.30
2023-12-17T17:43:50.345Z,13.30
2023-12-17T17:46:17.274Z,11.50
2023-12-17T17:48:46.885Z,12.67
2023-12-17T17:51:14.032Z,13.73
2023-12-17T17:53:40.943Z,13.40
2023-12-17T17:56:08.148Z,11.70
2023-12-17T17:58:35.140Z,13.10
2023-12-17T18:01:02.104Z,13.80
2023-12-17T18:03:29.263Z,11.97
2023-12-17T18:05:58.892Z,13.27
2023-12-17T18:08:25.830Z,11.90
2023-12-17T18:10:52.777Z,14.70
2023-12-17T18:13:19.686Z,13.53
2023-12-17T18:15:48.147Z,13.87
2023-12-17T18:18:15.706Z,12.80
2023-12-17T18:20:42.758Z,15.30
2023-12-17T18:23:12.233Z,13.23
2023-12-17T18:25:39.132Z,14.73
2023-12-17T18:28:06.518Z,14.10
2023-12-17T18:30:33.475Z,16.50
2023-12-17T18:33:00.543Z,16.70
2023-12-17T18:35:27.480Z,12.07
2023-12-17T18:37:54.366Z,14.90
2023-12-17T18:40:23.851Z,13.83
2023-12-17T18:42:50.793Z,13.73
2023-12-17T18:45:17.752Z,13.93
2023-12-17T18:47:44.824Z,16.60
2023-12-17T18:50:11.737Z,14.33
2023-12-17T18:52:38.755Z,15.03
2023-12-17T18:55:07.082Z,15.40
2023-12-17T18:57:36.691Z,13.40
2023-12-17T19:00:04.608Z,15.97
2023-12-17T19:02:31.603Z,20.07
2023-12-17T19:04:58.564Z,14.40
2023-12-17T19:07:25.507Z,14.27
2023-12-17T19:09:52.394Z,17.30
2023-12-17T19:12:19.629Z,14.30
2023-12-17T19:14:49.440Z,12.20
2023-12-17T19:17:16.910Z,26.53
2023-12-17T19:19:45.012Z,28.70
2023-12-17T19:22:11.990Z,18.87
2023-12-17T19:24:38.914Z,23.20
2023-12-17T19:27:05.938Z,25.80
2023-12-17T19:29:34.032Z,16.70
2023-12-17T19:32:03.911Z,18.40
2023-12-17T19:34:35.398Z,16.27
2023-12-17T19:37:02.398Z,34.73
2023-12-17T19:39:29.322Z,22.93
2023-12-17T19:41:56.308Z,17.93
2023-12-17T19:44:23.213Z,38.37
2023-12-17T19:46:50.195Z,28.67
2023-12-17T19:49:19.761Z,23.87
2023-12-17T19:51:46.795Z,17.67
2023-12-17T19:54:13.736Z,20.03
2023-12-17T19:56:40.675Z,16.07
2023-12-17T19:59:07.544Z,14.47
2023-12-17T20:01:34.459Z,19.67
2023-12-17T20:04:01.366Z,24.00
2023-12-17T20:06:30.948Z,19.00
2023-12-17T20:08:57.925Z,22.87
2023-12-17T20:11:24.866Z,18.10
2023-12-17T20:13:51.926Z,19.40
2023-12-17T20:16:18.827Z,16.83
2023-12-17T20:18:45.984Z,16.67
2023-12-17T20:21:13.640Z,21.10
2023-12-17T20:23:43.462Z,19.03
2023-12-17T20:26:10.465Z,16.47
2023-12-17T20:28:37.369Z,14.67
2023-12-17T20:31:04.652Z,16.80
2023-12-17T20:33:31.888Z,17.30
2023-12-17T20:35:58.979Z,19.30
2023-12-17T20:38:25.887Z,19.43
2023-12-17T20:40:55.364Z,15.63
2023-12-17T20:43:22.260Z,21.53
2023-12-17T20:45:49.233Z,20.90
2023-12-17T20:48:16.335Z,17.83
2023-12-17T20:50:44.061Z,16.07
2023-12-17T20:53:11.108Z,21.80
2023-12-17T20:55:38.020Z,29.30
2023-12-17T20:58:07.632Z,48.50
2023-12-17T21:00:34.667Z,37.97
2023-12-17T21:03:01.773Z,52.43
2023-12-17T21:05:28.766Z,48.73
2023-12-17T21:07:55.728Z,41.07
2023-12-17T21:10:22.620Z,22.87
2023-12-17T21:12:49.675Z,26.10
2023-12-17T21:15:19.516Z,30.27
2023-12-17T21:17:46.541Z,30.07
2023-12-17T21:20:13.736Z,34.80
2023-12-17T21:22:41.149Z,26.77
2023-12-17T21:25:09.716Z,23.73
2023-12-17T21:27:36.684Z,24.53
2023-12-17T21:30:05.223Z,22.63
2023-12-17T21:32:34.793Z,22.40
2023-12-17T21:35:01.766Z,17.40
2023-12-17T21:37:28.800Z,16.03
2023-12-17T21:39:55.688Z,14.40
2023-12-17T21:42:22.589Z,18.50
2023-12-17T21:44:49.705Z,16.93
2023-12-17T21:47:16.593Z,18.47
2023-12-17T21:49:46.305Z,19.43
2023-12-17T21:52:24.271Z,15.13
2023-12-17T21:54:59.594Z,14.33
2023-12-17T21:57:26.568Z,15.33
2023-12-17T22:00:13.459Z,14.00
2023-12-17T22:02:40.358Z,14.60
2023-12-17T22:05:09.967Z,15.53
2023-12-17T22:07:36.966Z,18.73
2023-12-17T22:10:04.114Z,15.43
2023-12-17T22:12:31.002Z,18.97
2023-12-17T22:14:57.933Z,19.87
2023-12-17T22:17:24.819Z,14.57
2023-12-17T22:19:51.848Z,15.57
2023-12-17T22:22:21.492Z,17.33
2023-12-17T22:24:48.396Z,15.73
2023-12-17T22:27:15.370Z,16.17
2023-12-17T22:29:42.326Z,20.00
2023-12-17T22:32:09.357Z,22.30
2023-12-17T22:34:36.284Z,18.83
2023-12-17T22:37:03.433Z,20.67
2023-12-17T22:39:34.289Z,17.87
2023-12-17T22:42:01.374Z,15.83
2023-12-17T22:44:28.312Z,17.63
2023-12-17T22:46:55.170Z,14.53
2023-12-17T22:49:22.145Z,13.50
2023-12-17T22:51:49.027Z,14.73
2023-12-17T22:54:16.303Z,18.23
2023-12-17T22:56:45.794Z,15.30
2023-12-17T22:59:12.700Z,26.63
2023-12-17T23:01:39.629Z,18.17
2023-12-17T23:04:06.556Z,14.07
2023-12-17T23:06:33.598Z,11.53
2023-12-17T23:09:00.757Z,17.13
2023-12-17T23:11:27.678Z,14.70
2023-12-17T23:13:57.183Z,13.93
2023-12-17T23:16:24.066Z,16.33
2023-12-17T23:18:51.086Z,22.20
2023-12-17T23:21:18.036Z,18.00
2023-12-17T23:23:44.954Z,24.47
2023-12-17T23:26:11.848Z,15.70
2023-12-17T23:28:39.146Z,13.33
2023-12-17T23:31:08.820Z,17.90
2023-12-17T23:33:35.886Z,13.13
2023-12-17T23:36:03.165Z,12.90
2023-12-17T23:38:30.082Z,15.07
2023-12-17T23:40:56.968Z,22.00
2023-12-17T23:43:23.859Z,19.17
2023-12-17T23:45:50.889Z,23.37
2023-12-17T23:48:20.714Z,27.07
2023-12-17T23:50:47.743Z,29.77
2023-12-17T23:53:14.624Z,20.97
2023-12-17T23:55:41.553Z,19.33
2023-12-17T23:58:08.492Z,20.53
